Bf Esperanza — V2BR8 — position and weather

sailwx.info

Track history (hours):
 
Tides and Currents Weather Stations Pressure Air Temp Water Temp Dewpoint Dewpoint Depression Visibility Wind Speed Wind Dir Waves Ship Positions

Bf Esperanza

Last reported at 2015-Apr-26 08:33 UTC. Time now 2015-Apr-28 10:22 UTC.
Position N 36°18' W 003°18'.

Length 135 m; draft 8.7 m.

Type: Ship (hazmat cat A). MMSI: 304907000.

Date/timePositionNaut miles runAvg speedWind from/ knotsBaromVisibWave heightAir tempDewpointWater temp
2015-Apr-26 08:33N 36°18' W 003°18'1313.4
2015-Apr-26 07:33N 36°20' W 003°01'1413.9
2015-Apr-26 06:33N 36°21' W 002°44'1413.9
2015-Apr-26 05:33N 36°23' W 002°27'1413.8
2015-Apr-26 04:33N 36°26' W 002°11'1514.3
2015-Apr-26 03:31N 36°36' W 001°57'1913.7
2015-Apr-26 02:09N 36°47' W 001°38'913.6
2015-Apr-26 01:31N 36°54' W 001°30'1513.6
2015-Apr-26 00:26N 37°03' W 001°16'1112.7
2015-Apr-25 23:33N 37°11' W 001°07'1414.2
2015-Apr-25 22:33N 37°20' W 000°53'1514.9
2015-Apr-25 21:34N 37°30' W 000°39'1514.9
2015-Apr-25 20:33N 37°41' W 000°27'1414.4
2015-Apr-25 19:33N 37°53' W 000°17'1414.2
2015-Apr-25 18:33N 38°05' W 000°07'1514.8
2015-Apr-25 17:33N 38°18' E 000°03'2015.0
2015-Apr-25 16:14N 38°35' E 000°17'1014.7
2015-Apr-25 15:33N 38°43' E 000°23'1514.6
2015-Apr-25 14:33N 38°55' E 000°35'1514.5
2015-Apr-25 13:33N 39°07' E 000°45'1414.5
2015-Apr-25 12:33N 39°18' E 000°56'2914.6
2015-Apr-25 10:33N 39°42' E 001°19'1414.5
2015-Apr-25 09:33N 39°53' E 001°31'1514.5
2015-Apr-25 08:33N 40°05' E 001°41'1514.4
2015-Apr-25 07:31N 40°17' E 001°53'1414.5
2015-Apr-25 06:33N 40°28' E 002°04'1514.6
2015-Apr-25 05:33N 40°40' E 002°15'1514.8
2015-Apr-25 04:33N 40°52' E 002°27'1914.7
2015-Apr-25 03:17N 41°07' E 002°41'6115.4
2015-Apr-24 23:20N 41°58' E 003°25'1412.0
2015-Apr-24 22:11N 42°12' E 003°26'1013.8
2015-Apr-24 21:26N 42°23' E 003°26'1314.5
2015-Apr-24 20:33N 42°35' E 003°26'1515.1
2015-Apr-24 19:33N 42°51' E 003°26'1211.4
2015-Apr-24 18:28N 43°02' E 003°31'1714.6
2015-Apr-24 17:18N 43°04' E 003°55'1114.5
2015-Apr-24 16:32N 43°06' E 004°10'1914.4
2015-Apr-24 15:12N 43°08' E 004°36'1014.3
2015-Apr-24 14:29N 43°09' E 004°50'1314.2
2015-Apr-24 13:33N 43°11' E 005°08'1212.3
2015-Apr-24 12:33N 43°21' E 005°18'2 1.4
2015-Apr-24 11:27N 43°21' E 005°20'0 0.0
2015-Apr-24 10:27N 43°21' E 005°20'0 0.0
2015-Apr-24 09:26N 43°21' E 005°20'0 0.0
2015-Apr-24 08:32N 43°21' E 005°20'0 0.0
2015-Apr-24 07:32N 43°21' E 005°20'0 0.0
2015-Apr-24 06:19N 43°21' E 005°20'0 0.0
2015-Apr-24 05:31N 43°21' E 005°20'0 0.0
2015-Apr-24 03:06N 43°21' E 005°20'0 0.2
2015-Apr-24 01:32N 43°21' E 005°20'0 0.0
2015-Apr-24 00:13N 43°21' E 005°20'0 0.0
2015-Apr-23 23:04N 43°21' E 005°20'0 0.0
2015-Apr-23 20:28N 43°21' E 005°20'0 0.0
2015-Apr-23 19:26N 43°21' E 005°20'0 0.0
2015-Apr-23 18:26N 43°21' E 005°20'0 0.0
2015-Apr-23 16:06N 43°21' E 005°20'2 3.3
2015-Apr-23 15:30N 43°20' E 005°18'3113.6
2015-Apr-23 13:13N 42°57' E 004°50'1015.0
2015-Apr-23 12:33N 42°50' E 004°41'1615.1
2015-Apr-23 11:30N 42°38' E 004°26'1915.6
2015-Apr-23 10:16N 42°24' E 004°07'1014.5
2015-Apr-23 09:33N 42°17' E 003°57'1614.4
2015-Apr-23 08:28N 42°06' E 003°43'1414.2
2015-Apr-23 07:27N 41°55' E 003°29'1314.5
2015-Apr-23 06:32N 41°47' E 003°15'1614.8
2015-Apr-23 05:28N 41°38' E 002°58'1414.8
2015-Apr-23 04:33N 41°31' E 002°43'1615.0
2015-Apr-23 03:29N 41°22' E 002°25'1112.3
2015-Apr-23 02:33N 41°19' E 002°10'3 2.5
2015-Apr-23 01:27N 41°21' E 002°10'0 0.0
2015-Apr-22 23:08N 41°21' E 002°10'0 0.0
2015-Apr-22 22:25N 41°21' E 002°10'0 0.0
2015-Apr-22 20:30N 41°21' E 002°10'0 0.0
2015-Apr-22 19:18N 41°21' E 002°10'0 0.0
2015-Apr-22 16:29N 41°21' E 002°10'0 0.0
2015-Apr-22 15:28N 41°21' E 002°10'0 0.0
2015-Apr-22 14:28N 41°21' E 002°10'0 0.0
2015-Apr-22 13:18N 41°21' E 002°10'0 0.0
2015-Apr-22 12:33N 41°21' E 002°10'0 0.0
2015-Apr-22 11:33N 41°21' E 002°10'5 4.3
2015-Apr-22 10:29N 41°17' E 002°12'11 9.6
2015-Apr-22 09:20N 41°20' E 002°26'1314.7
2015-Apr-22 08:28N 41°27' E 002°40'1314.8
2015-Apr-22 07:33N 41°35' E 002°54'1515.4
2015-Apr-22 06:33N 41°44' E 003°11'1515.0
2015-Apr-22 05:33N 41°55' E 003°26'1615.7
2015-Apr-22 04:33N 42°10' E 003°26'25 3.5
2015-Apr-21 21:16N 42°31' E 003°06'0 0.0
2015-Apr-21 19:29N 42°31' E 003°06'0 0.0
2015-Apr-21 18:33N 42°31' E 003°06'0 0.0
2015-Apr-21 17:29N 42°31' E 003°06'0 0.0
2015-Apr-21 15:19N 42°31' E 003°06'0 0.0
2015-Apr-21 14:22N 42°31' E 003°06'0 0.0
2015-Apr-21 13:18N 42°31' E 003°06'0 0.0
2015-Apr-21 12:30N 42°31' E 003°06'0 0.0
2015-Apr-21 11:06N 42°31' E 003°06'0 0.0
2015-Apr-21 08:16N 42°31' E 003°06'0 0.0
2015-Apr-20 22:08N 42°31' E 003°06'0 0.0
2015-Apr-20 19:23N 42°31' E 003°06'0 0.0
2015-Apr-20 18:10N 42°31' E 003°06'0 0.0
2015-Apr-20 16:16N 42°31' E 003°06'0 0.0
2015-Apr-20 13:14N 42°31' E 003°06'0 0.0
2015-Apr-20 11:31N 42°31' E 003°06'60 4.6
2015-Apr-19 22:32N 41°31' E 003°04'1813.4
2015-Apr-19 21:10N 41°17' E 002°49'813.5
2015-Apr-19 20:33N 41°10' E 002°43'1413.7
2015-Apr-19 19:33N 40°59' E 002°32'1413.7
2015-Apr-19 18:33N 40°47' E 002°22'1413.7
2015-Apr-19 17:33N 40°36' E 002°11'1414.2
2015-Apr-19 16:33N 40°25' E 002°00'1414.1
2015-Apr-19 15:33N 40°14' E 001°49'1414.2
2015-Apr-19 14:33N 40°02' E 001°38'1514.7
2015-Apr-19 13:33N 39°50' E 001°27'12214.9
2015-Apr-19 05:22N 38°09' W 000°01'1214.7
2015-Apr-19 04:33N 37°59' W 000°09'1514.7
2015-Apr-19 03:33N 37°47' W 000°19'1615.3
2015-Apr-19 02:32N 37°34' W 000°30'1515.1
2015-Apr-19 01:33N 37°24' W 000°44'2215.4
2015-Apr-19 00:06N 37°09' W 001°05'21514.8
2015-Apr-18 09:33N 35°59' W 005°18'  
Track history (hours):
 
Tides and Currents Weather Stations Pressure Air Temp Water Temp Dewpoint Dewpoint Depression Visibility Wind Speed Wind Dir Waves Ship Positions

Bf Esperanza

Last reported at 2015-Apr-26 08:33 UTC. Time now 2015-Apr-28 10:22 UTC.
Position N 36°18' W 003°18'.

Length 135 m; draft 8.7 m.

Type: Ship (hazmat cat A). MMSI: 304907000.

Date/timePositionNaut miles runAvg speedWind from/ knotsBaromVisibWave heightAir tempDewpointWater temp
2015-Apr-26 08:33N 36°18' W 003°18'1313.4
2015-Apr-26 07:33N 36°20' W 003°01'1413.9
2015-Apr-26 06:33N 36°21' W 002°44'1413.9
2015-Apr-26 05:33N 36°23' W 002°27'1413.8
2015-Apr-26 04:33N 36°26' W 002°11'1514.3
2015-Apr-26 03:31N 36°36' W 001°57'1913.7
2015-Apr-26 02:09N 36°47' W 001°38'913.6
2015-Apr-26 01:31N 36°54' W 001°30'1513.6
2015-Apr-26 00:26N 37°03' W 001°16'1112.7
2015-Apr-25 23:33N 37°11' W 001°07'1414.2
2015-Apr-25 22:33N 37°20' W 000°53'1514.9
2015-Apr-25 21:34N 37°30' W 000°39'1514.9
2015-Apr-25 20:33N 37°41' W 000°27'1414.4
2015-Apr-25 19:33N 37°53' W 000°17'1414.2
2015-Apr-25 18:33N 38°05' W 000°07'1514.8
2015-Apr-25 17:33N 38°18' E 000°03'2015.0
2015-Apr-25 16:14N 38°35' E 000°17'1014.7
2015-Apr-25 15:33N 38°43' E 000°23'1514.6
2015-Apr-25 14:33N 38°55' E 000°35'1514.5
2015-Apr-25 13:33N 39°07' E 000°45'1414.5
2015-Apr-25 12:33N 39°18' E 000°56'2914.6
2015-Apr-25 10:33N 39°42' E 001°19'1414.5
2015-Apr-25 09:33N 39°53' E 001°31'1514.5
2015-Apr-25 08:33N 40°05' E 001°41'1514.4
2015-Apr-25 07:31N 40°17' E 001°53'1414.5
2015-Apr-25 06:33N 40°28' E 002°04'1514.6
2015-Apr-25 05:33N 40°40' E 002°15'1514.8
2015-Apr-25 04:33N 40°52' E 002°27'1914.7
2015-Apr-25 03:17N 41°07' E 002°41'6115.4
2015-Apr-24 23:20N 41°58' E 003°25'1412.0
2015-Apr-24 22:11N 42°12' E 003°26'1013.8
2015-Apr-24 21:26N 42°23' E 003°26'1314.5
2015-Apr-24 20:33N 42°35' E 003°26'1515.1
2015-Apr-24 19:33N 42°51' E 003°26'1211.4
2015-Apr-24 18:28N 43°02' E 003°31'1714.6
2015-Apr-24 17:18N 43°04' E 003°55'1114.5
2015-Apr-24 16:32N 43°06' E 004°10'1914.4
2015-Apr-24 15:12N 43°08' E 004°36'1014.3
2015-Apr-24 14:29N 43°09' E 004°50'1314.2
2015-Apr-24 13:33N 43°11' E 005°08'1212.3
2015-Apr-24 12:33N 43°21' E 005°18'2 1.4
2015-Apr-24 11:27N 43°21' E 005°20'0 0.0
2015-Apr-24 10:27N 43°21' E 005°20'0 0.0
2015-Apr-24 09:26N 43°21' E 005°20'0 0.0
2015-Apr-24 08:32N 43°21' E 005°20'0 0.0
2015-Apr-24 07:32N 43°21' E 005°20'0 0.0
2015-Apr-24 06:19N 43°21' E 005°20'0 0.0
2015-Apr-24 05:31N 43°21' E 005°20'0 0.0
2015-Apr-24 03:06N 43°21' E 005°20'0 0.2
2015-Apr-24 01:32N 43°21' E 005°20'0 0.0
2015-Apr-24 00:13N 43°21' E 005°20'0 0.0
2015-Apr-23 23:04N 43°21' E 005°20'0 0.0
2015-Apr-23 20:28N 43°21' E 005°20'0 0.0
2015-Apr-23 19:26N 43°21' E 005°20'0 0.0
2015-Apr-23 18:26N 43°21' E 005°20'0 0.0
2015-Apr-23 16:06N 43°21' E 005°20'2 3.3
2015-Apr-23 15:30N 43°20' E 005°18'3113.6
2015-Apr-23 13:13N 42°57' E 004°50'1015.0
2015-Apr-23 12:33N 42°50' E 004°41'1615.1
2015-Apr-23 11:30N 42°38' E 004°26'1915.6
2015-Apr-23 10:16N 42°24' E 004°07'1014.5
2015-Apr-23 09:33N 42°17' E 003°57'1614.4
2015-Apr-23 08:28N 42°06' E 003°43'1414.2
2015-Apr-23 07:27N 41°55' E 003°29'1314.5
2015-Apr-23 06:32N 41°47' E 003°15'1614.8
2015-Apr-23 05:28N 41°38' E 002°58'1414.8
2015-Apr-23 04:33N 41°31' E 002°43'1615.0
2015-Apr-23 03:29N 41°22' E 002°25'1112.3
2015-Apr-23 02:33N 41°19' E 002°10'3 2.5
2015-Apr-23 01:27N 41°21' E 002°10'0 0.0
2015-Apr-22 23:08N 41°21' E 002°10'0 0.0
2015-Apr-22 22:25N 41°21' E 002°10'0 0.0
2015-Apr-22 20:30N 41°21' E 002°10'0 0.0
2015-Apr-22 19:18N 41°21' E 002°10'0 0.0
2015-Apr-22 16:29N 41°21' E 002°10'0 0.0
2015-Apr-22 15:28N 41°21' E 002°10'0 0.0
2015-Apr-22 14:28N 41°21' E 002°10'0 0.0
2015-Apr-22 13:18N 41°21' E 002°10'0 0.0
2015-Apr-22 12:33N 41°21' E 002°10'0 0.0
2015-Apr-22 11:33N 41°21' E 002°10'5 4.3
2015-Apr-22 10:29N 41°17' E 002°12'11 9.6
2015-Apr-22 09:20N 41°20' E 002°26'1314.7
2015-Apr-22 08:28N 41°27' E 002°40'1314.8
2015-Apr-22 07:33N 41°35' E 002°54'1515.4
2015-Apr-22 06:33N 41°44' E 003°11'1515.0
2015-Apr-22 05:33N 41°55' E 003°26'1615.7
2015-Apr-22 04:33N 42°10' E 003°26'25 3.5
2015-Apr-21 21:16N 42°31' E 003°06'0 0.0
2015-Apr-21 19:29N 42°31' E 003°06'0 0.0
2015-Apr-21 18:33N 42°31' E 003°06'0 0.0
2015-Apr-21 17:29N 42°31' E 003°06'0 0.0
2015-Apr-21 15:19N 42°31' E 003°06'0 0.0
2015-Apr-21 14:22N 42°31' E 003°06'0 0.0
2015-Apr-21 13:18N 42°31' E 003°06'0 0.0
2015-Apr-21 12:30N 42°31' E 003°06'0 0.0
2015-Apr-21 11:06N 42°31' E 003°06'0 0.0
2015-Apr-21 08:16N 42°31' E 003°06'0 0.0
2015-Apr-20 22:08N 42°31' E 003°06'0 0.0
2015-Apr-20 19:23N 42°31' E 003°06'0 0.0
2015-Apr-20 18:10N 42°31' E 003°06'0 0.0
2015-Apr-20 16:16N 42°31' E 003°06'0 0.0
2015-Apr-20 13:14N 42°31' E 003°06'0 0.0
2015-Apr-20 11:31N 42°31' E 003°06'60 4.6
2015-Apr-19 22:32N 41°31' E 003°04'1813.4
2015-Apr-19 21:10N 41°17' E 002°49'813.5
2015-Apr-19 20:33N 41°10' E 002°43'1413.7
2015-Apr-19 19:33N 40°59' E 002°32'1413.7
2015-Apr-19 18:33N 40°47' E 002°22'1413.7
2015-Apr-19 17:33N 40°36' E 002°11'1414.2
2015-Apr-19 16:33N 40°25' E 002°00'1414.1
2015-Apr-19 15:33N 40°14' E 001°49'1414.2
2015-Apr-19 14:33N 40°02' E 001°38'1514.7
2015-Apr-19 13:33N 39°50' E 001°27'12214.9
2015-Apr-19 05:22N 38°09' W 000°01'1214.7
2015-Apr-19 04:33N 37°59' W 000°09'1514.7
2015-Apr-19 03:33N 37°47' W 000°19'1615.3
2015-Apr-19 02:32N 37°34' W 000°30'1515.1
2015-Apr-19 01:33N 37°24' W 000°44'2215.4
2015-Apr-19 00:06N 37°09' W 001°05'21514.8
2015-Apr-18 09:33N 35°59' W 005°18'  

Dump ship's entire track history